logo
Search for airport 
image banner adimage banner adimage banner ad
image banner ad

ESJL - Linkoping/Us Linkoping Helikopterflygplats

Located in , Sweden

ICAO - , IATA -

Data provided by Airmate  

General information

Coordinates: N58°24'6" E15°37'10"
Elevation is 364 feet MSL.
 
View others Airports in Östergötlands län

Operational data

Special qualification required
Current time UTC:
Current local time:
Weather at : ESSL - Linkoping/Saab ( 4 km )
METAR: ESSL 140120Z AUTO VRB03KT 9999 OVC011/// 09/08 Q1000
TAF: TAF ESSL 132030Z 1321/1323 23008KT CAVOK
View NOTAMs / SUP AIP / TFR affecting this airport [VIEW]
Communications frequencies: [VIEW]

Runways:

Airport contact information

Address: Sweden

Satellite view of ESJL